createdAt,value
2018-08-13T00:00:07.769Z,1006.21
2018-08-13T00:01:07.792Z,1006.26
2018-08-13T00:02:07.815Z,1006.25
2018-08-13T00:03:07.839Z,1006.21
2018-08-13T00:04:07.864Z,1006.23
2018-08-13T00:05:07.887Z,1006.25
2018-08-13T00:06:07.911Z,1006.23
2018-08-13T00:07:07.936Z,1006.23
2018-08-13T00:08:07.959Z,1006.2
2018-08-13T00:09:07.983Z,1006.19
2018-08-13T00:10:08.006Z,1006.18
2018-08-13T00:11:08.031Z,1006.16
2018-08-13T00:12:08.054Z,1006.16
2018-08-13T00:13:08.078Z,1006.13
2018-08-13T00:14:08.100Z,1006.12
2018-08-13T00:16:08.149Z,1006.12
2018-08-13T00:17:08.172Z,1006.07
2018-08-13T00:18:08.197Z,1006.07
2018-08-13T00:19:08.219Z,1006.06
2018-08-13T00:20:08.245Z,1006.07
2018-08-13T00:21:08.268Z,1006.06
2018-08-13T00:22:08.291Z,1006
2018-08-13T00:23:08.314Z,1006
2018-08-13T00:24:08.338Z,1006.06
2018-08-13T00:25:08.362Z,1006.04
2018-08-13T00:26:08.387Z,1005.99
2018-08-13T00:27:08.410Z,1005.99
2018-08-13T00:28:08.437Z,1005.99
2018-08-13T00:29:08.455Z,1005.99
2018-08-13T00:30:08.480Z,1006
2018-08-13T00:32:08.528Z,1006
2018-08-13T00:33:08.551Z,1005.97
2018-08-13T00:34:08.574Z,1005.97
2018-08-13T00:35:08.597Z,1005.95
2018-08-13T00:36:08.622Z,1005.94
2018-08-13T00:37:08.644Z,1005.92
2018-08-13T00:38:08.669Z,1005.93
2018-08-13T00:39:08.692Z,1006
2018-08-13T00:40:08.716Z,1005.99
2018-08-13T00:41:08.737Z,1005.97
2018-08-13T00:42:08.762Z,1005.99
2018-08-13T00:43:08.786Z,1005.98
2018-08-13T00:44:08.815Z,1005.96
2018-08-13T00:45:08.833Z,1005.97
2018-08-13T00:47:08.882Z,1005.91
2018-08-13T00:48:08.903Z,1005.94
2018-08-13T00:49:08.928Z,1005.96
2018-08-13T00:50:08.952Z,1005.96
2018-08-13T00:51:08.975Z,1005.95
2018-08-13T00:52:08.997Z,1005.92
2018-08-13T00:53:09.025Z,1005.93
2018-08-13T00:54:09.045Z,1005.9
2018-08-13T00:55:09.068Z,1005.93
2018-08-13T00:56:09.091Z,1005.88
2018-08-13T00:57:09.116Z,1005.89
2018-08-13T00:58:09.140Z,1005.85
2018-08-13T00:59:09.162Z,1005.81
2018-08-13T01:00:09.186Z,1005.85
2018-08-13T01:01:09.209Z,1005.85
2018-08-13T01:02:09.234Z,1005.83
2018-08-13T01:03:09.256Z,1005.82
2018-08-13T01:04:09.279Z,1005.77
2018-08-13T01:05:09.303Z,1005.8
2018-08-13T01:06:09.328Z,1005.77
2018-08-13T01:07:09.349Z,1005.78
2018-08-13T01:08:09.375Z,1005.8
2018-08-13T01:09:09.396Z,1005.78
2018-08-13T01:10:09.419Z,1005.81
2018-08-13T01:11:09.446Z,1005.75
2018-08-13T01:12:09.467Z,1005.78
2018-08-13T01:13:09.494Z,1005.76
2018-08-13T01:14:09.512Z,1005.73
2018-08-13T01:15:09.536Z,1005.72
2018-08-13T01:16:09.560Z,1005.73
2018-08-13T01:17:09.584Z,1005.72
2018-08-13T01:19:09.630Z,1005.65
2018-08-13T01:20:09.655Z,1005.66
2018-08-13T01:21:09.676Z,1005.66
2018-08-13T01:22:09.706Z,1005.69
2018-08-13T01:23:09.724Z,1005.65
2018-08-13T01:24:09.747Z,1005.69
2018-08-13T01:25:09.771Z,1005.66
2018-08-13T01:26:09.794Z,1005.61
2018-08-13T01:27:09.824Z,1005.64
2018-08-13T01:28:09.841Z,1005.64
2018-08-13T01:29:09.863Z,1005.65
2018-08-13T01:30:09.888Z,1005.64
2018-08-13T01:31:09.962Z,1005.58
2018-08-13T01:32:09.935Z,1005.61
2018-08-13T01:33:09.963Z,1005.6
2018-08-13T01:35:10.005Z,1005.5
2018-08-13T01:36:10.027Z,1005.55
2018-08-13T01:37:10.052Z,1005.52
2018-08-13T01:38:10.075Z,1005.5
2018-08-13T01:39:10.098Z,1005.56
2018-08-13T01:40:10.120Z,1005.51
2018-08-13T01:41:10.147Z,1005.5
2018-08-13T01:42:10.168Z,1005.51
2018-08-13T01:43:10.193Z,1005.51
2018-08-13T01:44:10.214Z,1005.48
2018-08-13T01:45:10.238Z,1005.46
2018-08-13T01:46:10.261Z,1005.44
2018-08-13T01:47:10.282Z,1005.43
2018-08-13T01:48:10.307Z,1005.44
2018-08-13T01:49:10.331Z,1005.42
2018-08-13T01:51:10.377Z,1005.41
2018-08-13T01:52:10.400Z,1005.39
2018-08-13T01:53:10.423Z,1005.38
2018-08-13T01:54:10.451Z,1005.35
2018-08-13T01:55:10.474Z,1005.37
2018-08-13T01:56:10.543Z,1005.33
2018-08-13T01:57:10.517Z,1005.31
2018-08-13T01:58:10.538Z,1005.3
2018-08-13T01:59:10.561Z,1005.33
2018-08-13T02:00:10.586Z,1005.27
2018-08-13T02:01:10.609Z,1005.27
2018-08-13T02:02:10.632Z,1005.23
2018-08-13T02:03:10.656Z,1005.26
2018-08-13T02:04:10.678Z,1005.23
2018-08-13T02:05:10.700Z,1005.21
2018-08-13T02:07:10.747Z,1005.23
2018-08-13T02:08:10.770Z,1005.22
2018-08-13T02:09:10.794Z,1005.24
2018-08-13T02:10:10.817Z,1005.22
2018-08-13T02:11:10.841Z,1005.17
2018-08-13T02:12:10.862Z,1005.18
2018-08-13T02:13:10.886Z,1005.17
2018-08-13T02:14:10.911Z,1005.15
2018-08-13T02:15:10.934Z,1005.13
2018-08-13T02:16:10.956Z,1005.13
2018-08-13T02:17:10.979Z,1005.11
2018-08-13T02:18:11.002Z,1005.14
2018-08-13T02:19:11.026Z,1005.12
2018-08-13T02:20:11.049Z,1005.09
2018-08-13T02:22:11.096Z,1005.06
2018-08-13T02:23:11.121Z,1005.02
2018-08-13T02:24:11.140Z,1005.06
2018-08-13T02:25:11.165Z,1005.01
2018-08-13T02:26:11.189Z,1005.04
2018-08-13T02:27:11.211Z,1005.03
2018-08-13T02:28:11.234Z,1005.02
2018-08-13T02:29:11.357Z,1005.03
2018-08-13T02:30:11.278Z,1005.03
2018-08-13T02:31:11.303Z,1005.04
2018-08-13T02:32:11.326Z,1005
2018-08-13T02:33:11.352Z,1005
2018-08-13T02:34:11.377Z,1005.01
2018-08-13T02:35:11.395Z,1004.95
2018-08-13T02:36:11.418Z,1004.97
2018-08-13T02:37:11.450Z,1004.99
2018-08-13T02:38:11.464Z,1004.96
2018-08-13T02:39:11.551Z,1004.93
2018-08-13T02:40:11.510Z,1004.91
2018-08-13T02:41:11.531Z,1004.93
2018-08-13T02:42:11.556Z,1004.96
2018-08-13T02:43:11.580Z,1004.92
2018-08-13T02:44:11.606Z,1004.95
2018-08-13T02:45:11.628Z,1004.95
2018-08-13T02:46:11.648Z,1004.93
2018-08-13T02:47:11.671Z,1004.96
2018-08-13T02:48:11.693Z,1004.98
2018-08-13T02:49:11.725Z,1004.99
2018-08-13T02:50:11.743Z,1004.98
2018-08-13T02:51:11.763Z,1004.99
2018-08-13T02:52:11.784Z,1004.99
2018-08-13T02:54:11.835Z,1004.97
2018-08-13T02:55:11.859Z,1005.03
2018-08-13T02:56:11.875Z,1004.94
2018-08-13T02:57:11.899Z,1004.96
2018-08-13T02:58:11.970Z,1004.94
2018-08-13T02:59:11.945Z,1004.93
2018-08-13T03:00:11.978Z,1004.92
2018-08-13T03:01:11.992Z,1004.94
2018-08-13T03:02:12.019Z,1004.92
2018-08-13T03:03:12.038Z,1004.89
2018-08-13T03:04:12.061Z,1004.92
2018-08-13T03:05:12.083Z,1004.86
2018-08-13T03:06:12.106Z,1004.85
2018-08-13T03:07:12.127Z,1004.86
2018-08-13T03:08:12.150Z,1004.82
2018-08-13T03:10:12.196Z,1004.81
2018-08-13T03:11:12.219Z,1004.83
2018-08-13T03:12:12.241Z,1004.84
2018-08-13T03:13:12.265Z,1004.82
2018-08-13T03:14:12.288Z,1004.82
2018-08-13T03:15:12.313Z,1004.8
2018-08-13T03:16:12.332Z,1004.78
2018-08-13T03:17:12.356Z,1004.77
2018-08-13T03:18:12.377Z,1004.77
2018-08-13T03:19:12.403Z,1004.79
2018-08-13T03:20:12.431Z,1004.8
2018-08-13T03:21:12.447Z,1004.8
2018-08-13T03:22:12.468Z,1004.72
2018-08-13T03:23:12.492Z,1004.74
2018-08-13T03:24:12.516Z,1004.78
2018-08-13T03:26:12.561Z,1004.74
2018-08-13T03:27:12.583Z,1004.75
2018-08-13T03:28:12.605Z,1004.72
2018-08-13T03:29:12.627Z,1004.71
2018-08-13T03:30:12.650Z,1004.73
2018-08-13T03:31:12.674Z,1004.71
2018-08-13T03:32:12.697Z,1004.67
2018-08-13T03:33:12.720Z,1004.64
2018-08-13T03:34:12.741Z,1004.6
2018-08-13T03:35:12.765Z,1004.59
2018-08-13T03:36:12.788Z,1004.59
2018-08-13T03:37:12.809Z,1004.55
2018-08-13T03:38:12.831Z,1004.52
2018-08-13T03:39:12.857Z,1004.51
2018-08-13T03:40:12.874Z,1004.52
2018-08-13T03:42:12.920Z,1004.49
2018-08-13T03:43:12.944Z,1004.45
2018-08-13T03:44:12.966Z,1004.45
2018-08-13T03:45:12.991Z,1004.51
2018-08-13T03:46:13.012Z,1004.45
2018-08-13T03:47:13.033Z,1004.45
2018-08-13T03:48:13.057Z,1004.46
2018-08-13T03:49:13.079Z,1004.46
2018-08-13T03:50:13.102Z,1004.41
2018-08-13T03:51:13.123Z,1004.42
2018-08-13T03:52:13.147Z,1004.36
2018-08-13T03:53:13.169Z,1004.36
2018-08-13T03:54:13.193Z,1004.34
2018-08-13T03:55:13.215Z,1004.3
2018-08-13T03:57:13.261Z,1004.3
2018-08-13T03:58:13.283Z,1004.31
2018-08-13T03:59:13.305Z,1004.3
2018-08-13T04:00:13.332Z,1004.37
2018-08-13T04:01:13.350Z,1004.31
2018-08-13T04:02:13.372Z,1004.34
2018-08-13T04:03:13.394Z,1004.3
2018-08-13T04:04:13.417Z,1004.33
2018-08-13T04:05:13.440Z,1004.31
2018-08-13T04:06:13.462Z,1004.3
2018-08-13T04:07:13.486Z,1004.32
2018-08-13T04:08:13.508Z,1004.28
2018-08-13T04:09:13.528Z,1004.25
2018-08-13T04:10:13.551Z,1004.26
2018-08-13T04:11:13.574Z,1004.25
2018-08-13T04:12:13.640Z,1004.27
2018-08-13T04:13:13.622Z,1004.28
2018-08-13T04:14:13.643Z,1004.31
2018-08-13T04:15:13.665Z,1004.31
2018-08-13T04:16:13.687Z,1004.28
2018-08-13T04:17:13.710Z,1004.31
2018-08-13T04:18:13.733Z,1004.31
2018-08-13T04:19:13.756Z,1004.28
2018-08-13T04:20:13.776Z,1004.31
2018-08-13T04:21:13.800Z,1004.33
2018-08-13T04:22:13.826Z,1004.32
2018-08-13T04:23:13.845Z,1004.33
2018-08-13T04:24:13.868Z,1004.36
2018-08-13T04:25:13.891Z,1004.31
2018-08-13T04:26:13.913Z,1004.33
2018-08-13T04:27:13.936Z,1004.31
2018-08-13T04:29:13.981Z,1004.33
2018-08-13T04:30:14.013Z,1004.37
2018-08-13T04:31:14.027Z,1004.35
2018-08-13T04:32:14.049Z,1004.32
2018-08-13T04:33:14.073Z,1004.31
2018-08-13T04:34:14.095Z,1004.33
2018-08-13T04:35:14.117Z,1004.29
2018-08-13T04:36:14.139Z,1004.31
2018-08-13T04:37:14.164Z,1004.32
2018-08-13T04:38:14.185Z,1004.33
2018-08-13T04:39:14.206Z,1004.33
2018-08-13T04:40:14.231Z,1004.29
2018-08-13T04:41:14.254Z,1004.32
2018-08-13T04:42:14.276Z,1004.3
2018-08-13T04:43:14.300Z,1004.3
2018-08-13T04:45:14.345Z,1004.31
2018-08-13T04:46:14.367Z,1004.38
2018-08-13T04:47:14.390Z,1004.4
2018-08-13T04:48:14.413Z,1004.4
2018-08-13T04:49:14.438Z,1004.41
2018-08-13T04:50:14.460Z,1004.42
2018-08-13T04:51:14.481Z,1004.45
2018-08-13T04:52:14.575Z,1004.44
2018-08-13T04:53:14.527Z,1004.42
2018-08-13T04:54:14.549Z,1004.4
2018-08-13T04:55:14.573Z,1004.57
2018-08-13T04:56:14.596Z,1004.64
2018-08-13T04:57:14.617Z,1004.67
2018-08-13T04:58:14.642Z,1004.71
2018-08-13T04:59:14.666Z,1004.78
2018-08-13T05:01:14.753Z,1004.85
2018-08-13T05:02:14.737Z,1004.89
2018-08-13T05:03:14.763Z,1004.93
2018-08-13T05:04:14.787Z,1005.01
2018-08-13T05:05:14.811Z,1005.04
2018-08-13T05:06:14.840Z,1005.05
2018-08-13T05:07:14.870Z,1005.1
2018-08-13T05:08:14.890Z,1005.11
2018-08-13T05:09:14.918Z,1005.14
2018-08-13T05:10:14.942Z,1005.18
2018-08-13T05:11:14.985Z,1005.25
2018-08-13T05:12:14.996Z,1005.24
2018-08-13T05:13:15.023Z,1005.26
2018-08-13T05:14:15.052Z,1005.26
2018-08-13T05:15:15.078Z,1005.24
2018-08-13T05:17:15.136Z,1005.34
2018-08-13T05:18:15.165Z,1005.33
2018-08-13T05:19:15.243Z,1005.38
2018-08-13T05:20:15.222Z,1005.42
2018-08-13T05:21:15.257Z,1005.42
2018-08-13T05:22:15.281Z,1005.45
2018-08-13T05:23:15.319Z,1005.41
2018-08-13T05:24:15.341Z,1005.38
2018-08-13T05:25:15.372Z,1005.48
2018-08-13T05:26:15.400Z,1005.44
2018-08-13T05:27:15.431Z,1005.34
2018-08-13T05:28:15.463Z,1005.18
2018-08-13T05:29:15.495Z,1005.31
2018-08-13T05:30:15.548Z,1005.35
2018-08-13T05:32:15.589Z,1005.46
2018-08-13T05:33:15.621Z,1005.45
2018-08-13T05:34:15.652Z,1005.43
2018-08-13T05:35:15.683Z,1005.48
2018-08-13T05:36:15.715Z,1005.48
2018-08-13T05:37:15.747Z,1005.5
2018-08-13T05:38:15.843Z,1005.5
2018-08-13T05:39:15.810Z,1005.49
2018-08-13T05:40:15.843Z,1005.5
2018-08-13T05:41:15.877Z,1005.48
2018-08-13T05:42:15.909Z,1005.42
2018-08-13T05:43:15.941Z,1005.41
2018-08-13T05:44:15.974Z,1005.28
2018-08-13T05:45:16.008Z,1005.14
2018-08-13T05:46:16.041Z,1005.21
2018-08-13T05:47:16.077Z,1005.27
2018-08-13T05:48:16.107Z,1005.32
2018-08-13T05:49:16.140Z,1005.3
2018-08-13T05:50:16.173Z,1005.33
2018-08-13T05:51:16.207Z,1005.38
2018-08-13T05:52:16.240Z,1005.54
2018-08-13T05:53:16.272Z,1005.57
2018-08-13T05:54:16.307Z,1005.65
2018-08-13T05:55:16.340Z,1005.68
2018-08-13T05:56:16.375Z,1005.7
2018-08-13T05:57:16.409Z,1005.72
2018-08-13T05:58:16.441Z,1005.71
2018-08-13T05:59:16.475Z,1005.71
2018-08-13T06:00:16.512Z,1005.77
2018-08-13T06:01:16.542Z,1005.77
2018-08-13T06:02:16.576Z,1005.84
2018-08-13T06:04:16.646Z,1005.84
2018-08-13T06:05:16.682Z,1005.85
2018-08-13T06:06:16.713Z,1005.86
2018-08-13T06:07:16.749Z,1005.84
2018-08-13T06:08:16.785Z,1005.77
2018-08-13T06:09:16.818Z,1005.69
2018-08-13T06:10:16.854Z,1005.75
2018-08-13T06:11:16.923Z,1005.68
2018-08-13T06:12:16.925Z,1005.65
2018-08-13T06:13:16.959Z,1005.62
2018-08-13T06:14:16.996Z,1005.63
2018-08-13T06:15:17.033Z,1005.6
2018-08-13T06:16:17.066Z,1005.57
2018-08-13T06:17:17.103Z,1005.62
2018-08-13T06:18:17.314Z,1005.64
2018-08-13T06:20:17.210Z,1005.54
2018-08-13T06:21:17.242Z,1005.57
2018-08-13T06:22:17.351Z,1005.53
2018-08-13T06:23:17.314Z,1005.6
2018-08-13T06:24:17.377Z,1005.66
2018-08-13T06:25:17.384Z,1005.82
2018-08-13T06:26:17.418Z,1005.83
2018-08-13T06:27:17.454Z,1005.87
2018-08-13T06:28:17.508Z,1005.94
2018-08-13T06:29:17.526Z,1006.03
2018-08-13T06:30:17.560Z,1006.06
2018-08-13T06:31:17.597Z,1006.05
2018-08-13T06:32:17.631Z,1006.16
2018-08-13T06:33:17.667Z,1006.23
2018-08-13T06:34:17.702Z,1006.29
2018-08-13T06:36:17.827Z,1006.38
2018-08-13T06:37:17.862Z,1006.4
2018-08-13T06:38:17.850Z,1006.29
2018-08-13T06:39:17.880Z,1006.45
2018-08-13T06:40:17.918Z,1006.44
2018-08-13T06:41:17.955Z,1006.5
2018-08-13T06:42:17.991Z,1006.49
2018-08-13T06:43:18.025Z,1006.42
2018-08-13T06:44:18.089Z,1006.36
2018-08-13T06:45:18.100Z,1006.37
2018-08-13T06:46:18.138Z,1006.39
2018-08-13T06:47:18.171Z,1006.38
2018-08-13T06:48:18.208Z,1006.44
2018-08-13T06:49:18.246Z,1006.39
2018-08-13T06:50:18.288Z,1006.33
2018-08-13T06:52:18.356Z,1006.3
2018-08-13T06:53:18.396Z,1006.24
2018-08-13T06:54:18.429Z,1006.2
2018-08-13T06:55:18.469Z,1006.1
2018-08-13T06:56:18.503Z,1006.18
2018-08-13T06:57:18.542Z,1006.04
2018-08-13T06:58:18.579Z,1005.95
2018-08-13T06:59:18.620Z,1005.9
2018-08-13T07:00:18.652Z,1005.84
2018-08-13T07:01:18.693Z,1005.85
2018-08-13T07:02:18.728Z,1005.16
2018-08-13T07:03:18.773Z,1005.61
2018-08-13T07:04:18.802Z,1005.55
2018-08-13T07:05:18.840Z,1005.45
2018-08-13T07:07:18.916Z,1005.07
2018-08-13T07:08:18.950Z,1004.98
2018-08-13T07:09:18.988Z,1005.01
2018-08-13T07:10:19.026Z,1004.97
2018-08-13T07:11:19.062Z,1004.88
2018-08-13T07:12:19.100Z,1004.87
2018-08-13T07:13:19.137Z,1004.91
2018-08-13T07:14:19.174Z,1005
2018-08-13T07:15:19.210Z,1005.08
2018-08-13T07:16:19.247Z,1005.05
2018-08-13T07:17:19.283Z,1005.09
2018-08-13T07:18:19.321Z,1005.03
2018-08-13T07:19:19.356Z,1004.91
2018-08-13T07:20:19.395Z,1004.98
2018-08-13T07:21:19.432Z,1005
2018-08-13T07:22:19.550Z,1005.01
2018-08-13T07:23:19.505Z,1005.06
2018-08-13T07:24:19.542Z,1005.06
2018-08-13T07:25:19.578Z,1005.08
2018-08-13T07:26:19.615Z,1005.05
2018-08-13T07:27:19.654Z,1005.02
2018-08-13T07:28:19.689Z,1005.02
2018-08-13T07:29:19.725Z,1005.01
2018-08-13T07:30:19.763Z,1004.87
2018-08-13T07:31:19.800Z,1004.97
2018-08-13T07:32:19.836Z,1005.21
2018-08-13T07:33:19.940Z,1005.18
2018-08-13T07:34:19.916Z,1005.18
2018-08-13T07:35:19.949Z,1005.19
2018-08-13T07:36:19.986Z,1005.14
2018-08-13T07:37:20.023Z,1005.18
2018-08-13T07:39:20.120Z,1005.07
2018-08-13T07:40:20.136Z,1005.04
2018-08-13T07:41:20.175Z,1005.05
2018-08-13T07:42:20.215Z,1005.07
2018-08-13T07:43:20.248Z,1005.05
2018-08-13T07:44:20.285Z,1005.03
2018-08-13T07:45:20.321Z,1005.03
2018-08-13T07:46:20.363Z,1005.01
2018-08-13T07:47:20.397Z,1005.03
2018-08-13T07:48:20.433Z,1004.98
2018-08-13T07:49:20.475Z,1004.99
2018-08-13T07:50:20.510Z,1004.94
2018-08-13T07:51:20.549Z,1004.93
2018-08-13T07:52:20.605Z,1004.88
2018-08-13T07:53:20.622Z,1004.86
2018-08-13T07:55:20.698Z,1004.85
2018-08-13T07:56:20.735Z,1004.84
2018-08-13T07:57:20.773Z,1004.88
2018-08-13T07:58:20.812Z,1004.85
2018-08-13T07:59:20.853Z,1004.85
2018-08-13T08:00:20.887Z,1004.81
2018-08-13T08:01:20.925Z,1004.84
2018-08-13T08:02:20.962Z,1004.86
2018-08-13T08:03:21.000Z,1004.87
2018-08-13T08:04:21.039Z,1004.82
2018-08-13T08:05:21.077Z,1004.8
2018-08-13T08:06:21.115Z,1004.78
2018-08-13T08:07:21.151Z,1004.8
2018-08-13T08:08:21.191Z,1004.77
2018-08-13T08:09:21.234Z,1004.81
2018-08-13T08:11:21.303Z,1004.82
2018-08-13T08:12:21.342Z,1004.81
2018-08-13T08:13:21.385Z,1004.8
2018-08-13T08:14:21.417Z,1004.77
2018-08-13T08:15:21.455Z,1004.8
2018-08-13T08:16:21.494Z,1004.76
2018-08-13T08:17:21.532Z,1004.73
2018-08-13T08:18:21.571Z,1004.69
2018-08-13T08:19:21.608Z,1004.62
2018-08-13T08:20:21.644Z,1004.64
2018-08-13T08:21:21.769Z,1004.63
2018-08-13T08:22:21.721Z,1004.65
2018-08-13T08:23:21.760Z,1004.65
2018-08-13T08:24:21.797Z,1004.68
2018-08-13T08:25:21.838Z,1004.72
2018-08-13T08:27:21.911Z,1004.8
2018-08-13T08:28:21.950Z,1004.8
2018-08-13T08:29:22.014Z,1004.84
2018-08-13T08:30:22.024Z,1004.92
2018-08-13T08:31:22.065Z,1004.83
2018-08-13T08:32:22.100Z,1004.86
2018-08-13T08:33:22.139Z,1004.87
2018-08-13T08:34:22.177Z,1004.84
2018-08-13T08:35:22.219Z,1004.82
2018-08-13T08:36:22.256Z,1004.79
2018-08-13T08:37:22.291Z,1004.77
2018-08-13T08:38:22.329Z,1004.73
2018-08-13T08:39:22.367Z,1004.8
2018-08-13T08:40:22.411Z,1004.67
2018-08-13T08:42:22.482Z,1004.45
2018-08-13T08:43:22.519Z,1004.4
2018-08-13T08:44:22.557Z,1004.41
2018-08-13T08:45:22.594Z,1004.44
2018-08-13T08:46:22.633Z,1004.44
2018-08-13T08:47:22.670Z,1004.38
2018-08-13T08:48:22.708Z,1004.38
2018-08-13T08:49:22.746Z,1004.4
2018-08-13T08:50:22.782Z,1004.36
2018-08-13T08:51:22.821Z,1004.28
2018-08-13T08:52:22.862Z,1004.28
2018-08-13T08:53:22.895Z,1004.26
2018-08-13T08:54:22.934Z,1004.15
2018-08-13T08:55:22.972Z,1004.15
2018-08-13T08:56:23.011Z,1004.18
2018-08-13T08:57:23.047Z,1004.07
2018-08-13T08:58:23.084Z,1004.12
2018-08-13T08:59:23.121Z,1004.14
2018-08-13T09:00:23.157Z,1004.08
2018-08-13T09:01:23.195Z,1004.02
2018-08-13T09:02:23.232Z,1004.01
2018-08-13T09:03:23.269Z,1004.02
2018-08-13T09:04:23.313Z,1004.03
2018-08-13T09:05:23.340Z,1004.01
2018-08-13T09:06:23.378Z,1004.04
2018-08-13T09:07:23.414Z,1004.03
2018-08-13T09:08:23.450Z,1004.03
2018-08-13T09:09:23.489Z,1004.03
2018-08-13T09:10:23.522Z,1003.97
2018-08-13T09:11:23.560Z,1003.98
2018-08-13T09:12:23.593Z,1004.01
2018-08-13T09:14:23.664Z,1004.01
2018-08-13T09:15:23.700Z,1004
2018-08-13T09:16:23.734Z,1003.96
2018-08-13T09:17:23.771Z,1003.96
2018-08-13T09:18:23.806Z,1003.98
2018-08-13T09:19:23.841Z,1003.98
2018-08-13T09:20:23.877Z,1003.97
2018-08-13T09:21:23.912Z,1003.98
2018-08-13T09:22:23.948Z,1003.91
2018-08-13T09:23:23.987Z,1003.9
2018-08-13T09:24:24.018Z,1003.86
2018-08-13T09:25:24.070Z,1003.88
2018-08-13T09:26:24.090Z,1003.84
2018-08-13T09:27:24.125Z,1003.78
2018-08-13T09:28:24.162Z,1003.77
2018-08-13T09:30:24.233Z,1003.76
2018-08-13T09:31:24.268Z,1003.73
2018-08-13T09:32:24.305Z,1003.78
2018-08-13T09:33:24.342Z,1003.74
2018-08-13T09:34:24.376Z,1003.7
2018-08-13T09:35:24.411Z,1003.75
2018-08-13T09:36:24.448Z,1003.79
2018-08-13T09:37:24.485Z,1003.75
2018-08-13T09:38:24.520Z,1003.74
2018-08-13T09:39:24.556Z,1003.68
2018-08-13T09:40:24.592Z,1003.68
2018-08-13T09:41:24.627Z,1003.68
2018-08-13T09:42:24.664Z,1003.69
2018-08-13T09:43:24.700Z,1003.68
2018-08-13T09:44:24.738Z,1003.68
2018-08-13T09:46:24.805Z,1003.69
2018-08-13T09:47:24.843Z,1003.65
2018-08-13T09:48:24.879Z,1003.61
2018-08-13T09:49:24.931Z,1003.65
2018-08-13T09:50:24.949Z,1003.6
2018-08-13T09:51:24.986Z,1003.56
2018-08-13T09:52:25.023Z,1003.56
2018-08-13T09:53:25.057Z,1003.57
2018-08-13T09:54:25.098Z,1003.59
2018-08-13T09:55:25.129Z,1003.58
2018-08-13T09:56:25.164Z,1003.54
2018-08-13T09:57:25.199Z,1003.52
2018-08-13T09:58:25.235Z,1003.51
2018-08-13T09:59:25.272Z,1003.47
2018-08-13T10:00:25.358Z,1003.51
2018-08-13T10:02:25.379Z,1003.49
2018-08-13T10:03:25.416Z,1003.44
2018-08-13T10:04:25.449Z,1003.43
2018-08-13T10:05:25.484Z,1003.45
2018-08-13T10:06:25.521Z,1003.41
2018-08-13T10:07:25.555Z,1003.47
2018-08-13T10:08:25.591Z,1003.43
2018-08-13T10:09:25.730Z,1003.36
2018-08-13T10:10:25.663Z,1003.36
2018-08-13T10:11:25.698Z,1003.4
2018-08-13T10:12:25.733Z,1003.36
2018-08-13T10:13:25.768Z,1003.38
2018-08-13T10:14:25.803Z,1003.41
2018-08-13T10:15:25.841Z,1003.38
2018-08-13T10:17:25.951Z,1003.4
2018-08-13T10:18:25.945Z,1003.41
2018-08-13T10:19:25.978Z,1003.37
2018-08-13T10:20:26.016Z,1003.34
2018-08-13T10:21:26.056Z,1003.34
2018-08-13T10:22:26.085Z,1003.31
2018-08-13T10:23:26.163Z,1003.27
2018-08-13T10:24:26.155Z,1003.21
2018-08-13T10:25:26.191Z,1003.25
2018-08-13T10:26:26.234Z,1003.32
2018-08-13T10:27:26.260Z,1003.31
2018-08-13T10:28:26.296Z,1003.3
2018-08-13T10:29:26.330Z,1003.34
2018-08-13T10:30:26.369Z,1003.33
2018-08-13T10:31:26.402Z,1003.34
2018-08-13T10:32:26.439Z,1003.33
2018-08-13T10:33:26.472Z,1003.29
2018-08-13T10:34:26.507Z,1003.26
2018-08-13T10:35:26.541Z,1003.24
2018-08-13T10:36:26.577Z,1003.24
2018-08-13T10:37:26.623Z,1003.15
2018-08-13T10:38:26.650Z,1003.09
2018-08-13T10:39:26.682Z,1003.13
2018-08-13T10:40:26.719Z,1003.14
2018-08-13T10:41:26.753Z,1003.07
2018-08-13T10:42:26.790Z,1003.05
2018-08-13T10:43:26.850Z,1003.14
2018-08-13T10:44:26.854Z,1003.07
2018-08-13T10:45:26.890Z,1003.09
2018-08-13T10:46:26.927Z,1003.1
2018-08-13T10:47:26.961Z,1003.07
2018-08-13T10:49:27.076Z,1003.06
2018-08-13T10:50:27.064Z,1003.06
2018-08-13T10:51:27.099Z,1003.07
2018-08-13T10:52:27.133Z,1003.02
2018-08-13T10:53:27.167Z,1003.07
2018-08-13T10:54:27.201Z,1003.05
2018-08-13T10:55:27.235Z,1002.98
2018-08-13T10:56:27.269Z,1002.99
2018-08-13T10:57:27.304Z,1002.92
2018-08-13T10:58:27.341Z,1002.91
2018-08-13T10:59:27.371Z,1002.87
2018-08-13T11:00:27.403Z,1002.89
2018-08-13T11:01:27.439Z,1002.91
2018-08-13T11:02:27.471Z,1002.9
2018-08-13T11:03:27.505Z,1002.92
2018-08-13T11:05:27.572Z,1002.9
2018-08-13T11:06:27.608Z,1002.91
2018-08-13T11:07:27.642Z,1002.82
2018-08-13T11:08:27.672Z,1002.86
2018-08-13T11:09:27.709Z,1002.88
2018-08-13T11:10:27.912Z,1002.86
2018-08-13T11:11:27.771Z,1002.85
2018-08-13T11:12:27.807Z,1002.83
2018-08-13T11:13:27.850Z,1002.8
2018-08-13T11:14:27.871Z,1002.82
2018-08-13T11:15:27.906Z,1002.81
2018-08-13T11:16:27.937Z,1002.78
2018-08-13T11:17:27.968Z,1002.84
2018-08-13T11:18:28.003Z,1002.79
2018-08-13T11:19:28.037Z,1002.79
2018-08-13T11:21:28.107Z,1002.71
2018-08-13T11:22:28.133Z,1002.74
2018-08-13T11:23:28.167Z,1002.74
2018-08-13T11:24:28.201Z,1002.76
2018-08-13T11:25:28.261Z,1002.78
2018-08-13T11:26:28.266Z,1002.82
2018-08-13T11:27:28.300Z,1002.81
2018-08-13T11:28:28.341Z,1002.8
2018-08-13T11:29:28.364Z,1002.82
2018-08-13T11:30:28.398Z,1002.8
2018-08-13T11:31:28.431Z,1002.8
2018-08-13T11:32:28.462Z,1002.84
2018-08-13T11:33:28.497Z,1002.77
2018-08-13T11:34:28.527Z,1002.77
2018-08-13T11:35:28.559Z,1002.81
2018-08-13T11:37:28.628Z,1002.78
2018-08-13T11:38:28.658Z,1002.83
2018-08-13T11:39:28.690Z,1002.81
2018-08-13T11:40:28.792Z,1002.73
2018-08-13T11:41:28.756Z,1002.72
2018-08-13T11:42:28.787Z,1002.73
2018-08-13T11:43:28.820Z,1002.79
2018-08-13T11:44:28.854Z,1002.72
2018-08-13T11:45:28.889Z,1002.69
2018-08-13T11:46:29.029Z,1002.71
2018-08-13T11:47:28.949Z,1002.64
2018-08-13T11:48:29.032Z,1002.64
2018-08-13T11:49:29.015Z,1002.65
2018-08-13T11:50:29.051Z,1002.64
2018-08-13T11:52:29.127Z,1002.58
2018-08-13T11:53:29.143Z,1002.58
2018-08-13T11:54:29.176Z,1002.54
2018-08-13T11:55:29.208Z,1002.55
2018-08-13T11:56:29.258Z,1002.5
2018-08-13T11:57:29.273Z,1002.57
2018-08-13T11:58:29.304Z,1002.52
2018-08-13T11:59:29.336Z,1002.56
2018-08-13T12:00:29.369Z,1002.59
2018-08-13T12:01:29.402Z,1002.6
2018-08-13T12:02:29.433Z,1002.57
2018-08-13T12:03:29.466Z,1002.55
2018-08-13T12:04:29.497Z,1002.47
2018-08-13T12:05:29.529Z,1002.54
2018-08-13T12:06:29.562Z,1002.44
2018-08-13T12:07:29.594Z,1002.48
2018-08-13T12:08:29.750Z,1002.5
2018-08-13T12:09:29.680Z,1002.45
2018-08-13T12:10:29.691Z,1002.5
2018-08-13T12:11:29.722Z,1002.45
2018-08-13T12:12:29.754Z,1002.47
2018-08-13T12:13:29.784Z,1002.48
2018-08-13T12:14:29.817Z,1002.5
2018-08-13T12:15:29.857Z,1002.49
2018-08-13T12:16:29.881Z,1002.48
2018-08-13T12:17:29.913Z,1002.49
2018-08-13T12:18:29.944Z,1002.47
2018-08-13T12:19:30.013Z,1002.45
2018-08-13T12:20:30.010Z,1002.42
2018-08-13T12:21:30.041Z,1002.52
2018-08-13T12:22:30.073Z,1002.52
2018-08-13T12:24:30.137Z,1002.47
2018-08-13T12:25:30.168Z,1002.48
2018-08-13T12:26:30.266Z,1002.44
2018-08-13T12:27:30.232Z,1002.43
2018-08-13T12:28:30.265Z,1002.44
2018-08-13T12:29:30.299Z,1002.43
2018-08-13T12:30:30.328Z,1002.41
2018-08-13T12:31:30.360Z,1002.4
2018-08-13T12:32:30.392Z,1002.42
2018-08-13T12:33:30.424Z,1002.4
2018-08-13T12:34:30.456Z,1002.42
2018-08-13T12:35:30.488Z,1002.48
2018-08-13T12:36:30.521Z,1002.44
2018-08-13T12:37:30.551Z,1002.43
2018-08-13T12:38:30.583Z,1002.42
2018-08-13T12:40:30.647Z,1002.34
2018-08-13T12:41:30.679Z,1002.3
2018-08-13T12:42:30.710Z,1002.24
2018-08-13T12:43:30.741Z,1002.25
2018-08-13T12:44:30.774Z,1002.21
2018-08-13T12:45:30.805Z,1002.24
2018-08-13T12:46:30.837Z,1002.22
2018-08-13T12:47:30.870Z,1002.21
2018-08-13T12:48:30.899Z,1002.22